Time;durP1;ratioP1;P1;durP2;ratioP2;P2;SDS_P1;SDS_P2;PMS_P1;PMS_P2;Temp;Humidity;BMP_temperature;BMP_pressure;BME280_temperature;BME280_humidity;BME280_pressure;Samples;Min_cycle;Max_cycle;Signal;HPM_P1;HPM_P2
2023/05/28 00:01:48;;;;;;;6.63;3.80;;;;;;;16.47;100.00;99113.06;5073885;28;20211;-78
2023/05/28 00:04:16;;;;;;;6.53;3.40;;;;;;;16.48;100.00;99109.50;5074042;28;20193;-78
2023/05/28 00:06:42;;;;;;;8.33;3.97;;;;;;;16.47;100.00;99112.25;5074298;28;20671;-79
2023/05/28 00:09:10;;;;;;;6.93;3.33;;;;;;;16.40;100.00;99106.84;5073693;28;20203;-78
2023/05/28 00:11:37;;;;;;;6.40;3.63;;;;;;;16.45;100.00;99109.00;5073634;28;20225;-78
2023/05/28 00:14:04;;;;;;;5.77;3.13;;;;;;;16.57;100.00;99102.66;5073899;28;20674;-79
2023/05/28 00:16:35;;;;;;;4.13;2.67;;;;;;;16.60;100.00;99096.38;5073499;28;20698;-78
2023/05/28 00:19:02;;;;;;;4.60;3.00;;;;;;;16.58;100.00;99099.13;5073313;28;20222;-78
2023/05/28 00:21:29;;;;;;;5.20;3.33;;;;;;;16.65;100.00;99100.13;5073360;28;20243;-79
2023/05/28 00:23:55;;;;;;;7.23;3.60;;;;;;;16.70;100.00;99107.44;5073497;28;20752;-79
2023/05/28 00:26:22;;;;;;;5.10;3.20;;;;;;;16.69;100.00;99101.44;5072995;28;20228;-79
2023/05/28 00:28:49;;;;;;;5.03;3.20;;;;;;;16.75;100.00;99100.03;5073363;28;20208;-79
2023/05/28 00:31:16;;;;;;;5.47;3.10;;;;;;;16.73;100.00;99096.81;5073205;28;20231;-78
2023/05/28 00:33:44;;;;;;;4.27;2.97;;;;;;;16.79;100.00;99096.25;5073718;28;20197;-79
2023/05/28 00:36:11;;;;;;;5.93;3.47;;;;;;;16.75;100.00;99094.88;5073678;28;20232;-78
2023/05/28 00:38:38;;;;;;;5.27;3.17;;;;;;;16.79;100.00;99091.09;5073270;28;20193;-79
2023/05/28 00:41:05;;;;;;;4.13;3.30;;;;;;;16.81;100.00;99094.31;5073383;28;20477;-79
2023/05/28 00:43:32;;;;;;;4.60;3.20;;;;;;;16.84;100.00;99094.03;5072890;28;20223;-79
2023/05/28 00:46:01;;;;;;;5.47;3.53;;;;;;;16.86;100.00;99092.09;5073114;28;20259;-79
2023/05/28 00:48:30;;;;;;;5.07;3.30;;;;;;;16.80;100.00;99091.88;5073111;28;20196;-79
2023/05/28 00:50:59;;;;;;;5.67;3.33;;;;;;;16.81;100.00;99089.13;5072547;28;20294;-79
2023/05/28 00:53:26;;;;;;;6.43;3.47;;;;;;;16.76;100.00;99093.97;5072969;28;20201;-78
2023/05/28 00:55:55;;;;;;;6.80;3.63;;;;;;;16.71;100.00;99098.72;5072599;28;20221;-79
2023/05/28 00:58:23;;;;;;;6.67;3.23;;;;;;;16.71;100.00;99088.41;5073084;28;20986;-79
2023/05/28 01:00:50;;;;;;;4.77;3.27;;;;;;;16.75;100.00;99087.13;5072629;28;20888;-79
2023/05/28 01:03:17;;;;;;;5.93;3.20;;;;;;;16.79;100.00;99080.75;5072519;28;20201;-79
2023/05/28 01:05:44;;;;;;;6.40;3.80;;;;;;;16.81;100.00;99078.81;5072967;28;20651;-79
2023/05/28 01:08:12;;;;;;;5.77;3.47;;;;;;;16.90;100.00;99077.94;5072055;28;20207;-79
2023/05/28 01:10:39;;;;;;;5.30;2.93;;;;;;;16.85;100.00;99080.16;5072576;28;20222;-79
2023/05/28 01:13:08;;;;;;;6.60;3.00;;;;;;;16.88;100.00;99081.63;5072607;28;20208;-79
2023/05/28 01:15:37;;;;;;;5.53;2.53;;;;;;;16.77;100.00;99077.50;5072508;28;20296;-79
2023/05/28 01:18:04;;;;;;;9.10;3.87;;;;;;;16.75;100.00;99069.06;5072370;28;20211;-79
2023/05/28 01:20:32;;;;;;;4.53;3.23;;;;;;;16.68;100.00;99070.63;5072201;28;20242;-79
2023/05/28 01:23:03;;;;;;;4.63;3.33;;;;;;;16.72;100.00;99074.53;5072965;28;20198;-79
2023/05/28 01:25:34;;;;;;;5.87;3.67;;;;;;;16.71;100.00;99072.91;5072731;28;20224;-79
2023/05/28 01:28:02;;;;;;;6.03;3.47;;;;;;;16.60;100.00;99071.38;5071943;28;20212;-79
2023/05/28 01:30:29;;;;;;;7.20;3.63;;;;;;;16.63;100.00;99065.09;5071967;28;20224;-79
2023/05/28 01:32:56;;;;;;;6.10;4.03;;;;;;;16.62;100.00;99060.91;5071736;28;20773;-79
2023/05/28 01:35:23;;;;;;;5.17;3.23;;;;;;;16.64;100.00;99061.56;5071779;28;20304;-79
2023/05/28 01:37:53;;;;;;;5.30;2.87;;;;;;;16.61;100.00;99062.69;5072319;28;20200;-79
2023/05/28 01:40:22;;;;;;;6.83;3.77;;;;;;;16.63;100.00;99059.94;5072115;28;20266;-79
2023/05/28 01:42:51;;;;;;;6.57;3.90;;;;;;;16.52;100.00;99059.22;5071961;28;20217;-79
2023/05/28 01:45:19;;;;;;;6.57;3.53;;;;;;;16.47;100.00;99061.44;5072069;28;20242;-79
2023/05/28 01:47:46;;;;;;;8.33;3.47;;;;;;;16.43;100.00;99052.34;5072568;28;20204;-79
2023/05/28 01:50:13;;;;;;;6.03;3.90;;;;;;;16.45;100.00;99060.78;5071886;28;20210;-79
2023/05/28 01:52:40;;;;;;;3.00;2.60;;;;;;;16.46;100.00;99065.00;5071706;28;20208;-79
2023/05/28 01:55:08;;;;;;;6.33;3.57;;;;;;;16.48;100.00;99063.06;5071909;28;20524;-79
2023/05/28 01:57:35;;;;;;;4.97;3.43;;;;;;;16.57;100.00;99063.13;5071518;28;20277;-79
2023/05/28 02:00:06;;;;;;;5.23;3.10;;;;;;;16.59;100.00;99067.19;5071123;28;20252;-79
2023/05/28 02:02:32;;;;;;;4.97;3.33;;;;;;;16.55;100.00;99070.19;5071809;28;20199;-79
2023/05/28 02:04:59;;;;;;;9.97;3.20;;;;;;;16.48;100.00;99057.91;5071515;28;20230;-79
2023/05/28 02:07:26;;;;;;;6.17;3.60;;;;;;;16.38;100.00;99066.69;5071775;28;20336;-79
2023/05/28 02:09:53;;;;;;;8.83;3.87;;;;;;;16.35;100.00;99066.97;5071224;28;20234;-79
2023/05/28 02:12:20;;;;;;;6.20;3.80;;;;;;;16.46;100.00;99064.16;5071356;28;20219;-79
2023/05/28 02:14:48;;;;;;;5.63;3.57;;;;;;;16.55;100.00;99072.78;5071158;28;20284;-79
2023/05/28 02:17:17;;;;;;;14.57;3.33;;;;;;;16.57;100.00;99069.09;5071732;28;20228;-78
2023/05/28 02:19:44;;;;;;;5.10;2.97;;;;;;;16.57;100.00;99070.88;5071972;28;20281;-78
2023/05/28 02:22:11;;;;;;;3.63;2.73;;;;;;;16.47;100.00;99056.28;5071315;28;20298;-78
2023/05/28 02:24:38;;;;;;;7.07;3.40;;;;;;;16.48;100.00;99062.25;5071538;28;20210;-79
2023/05/28 02:27:07;;;;;;;5.10;3.27;;;;;;;16.48;100.00;99070.78;5071245;28;20199;-79
2023/05/28 02:29:34;;;;;;;5.57;3.30;;;;;;;16.44;100.00;99064.31;5071373;28;20203;-78
2023/05/28 02:32:01;;;;;;;5.13;3.27;;;;;;;16.39;100.00;99068.31;5071187;28;20752;-79
2023/05/28 02:34:31;;;;;;;4.97;3.10;;;;;;;16.31;100.00;99069.03;5071481;28;20229;-79
2023/05/28 02:37:00;;;;;;;4.67;3.10;;;;;;;16.40;100.00;99064.75;5071645;28;20268;-79
2023/05/28 02:39:26;;;;;;;4.63;3.03;;;;;;;16.35;100.00;99072.97;5071625;28;20567;-79
2023/05/28 02:41:53;;;;;;;4.77;3.27;;;;;;;16.28;100.00;99077.88;5071218;28;20233;-78
2023/05/28 02:44:20;;;;;;;4.63;2.57;;;;;;;16.26;100.00;99071.25;5071018;28;20201;-79
2023/05/28 02:46:47;;;;;;;4.70;3.30;;;;;;;16.28;100.00;99066.75;5071094;28;20259;-78
2023/05/28 02:49:14;;;;;;;3.97;3.00;;;;;;;16.32;100.00;99075.00;5070809;28;20199;-79
2023/05/28 02:51:42;;;;;;;5.00;3.57;;;;;;;16.43;100.00;99070.44;5071348;28;20284;-79
2023/05/28 02:54:08;;;;;;;8.03;3.00;;;;;;;16.43;100.00;99070.44;5071569;28;20195;-79
2023/05/28 02:56:35;;;;;;;5.17;3.20;;;;;;;16.45;100.00;99078.03;5071506;28;20277;-79
2023/05/28 02:59:02;;;;;;;4.53;2.43;;;;;;;16.50;100.00;99079.22;5071588;28;20714;-79
2023/05/28 03:01:29;;;;;;;4.40;3.03;;;;;;;16.47;100.00;99082.09;5070742;28;20241;-79
2023/05/28 03:03:56;;;;;;;4.80;3.03;;;;;;;16.58;100.00;99085.38;5071305;28;20203;-79
2023/05/28 03:06:23;;;;;;;3.27;2.50;;;;;;;16.60;100.00;99080.88;5071017;28;20226;-79
2023/05/28 03:08:51;;;;;;;5.60;3.60;;;;;;;16.58;100.00;99081.06;5070431;28;20253;-79
2023/05/28 03:11:18;;;;;;;4.97;3.13;;;;;;;16.53;100.00;99089.22;5070661;28;20226;-79
2023/05/28 03:13:46;;;;;;;11.37;3.10;;;;;;;16.61;100.00;99087.66;5070816;28;20365;-79
2023/05/28 03:16:13;;;;;;;5.80;3.67;;;;;;;16.62;100.00;99084.16;5074895;28;20225;-79
2023/05/28 03:18:40;;;;;;;5.80;3.17;;;;;;;16.55;100.00;99093.44;5075228;28;20210;-79
2023/05/28 03:21:07;;;;;;;3.83;3.03;;;;;;;16.56;100.00;99085.53;5074872;28;20440;-78
2023/05/28 03:23:33;;;;;;;4.23;2.87;;;;;;;16.50;100.00;99081.78;5074945;28;20195;-78
2023/05/28 03:26:02;;;;;;;3.60;2.80;;;;;;;16.47;100.00;99082.09;5075238;28;20219;-78
2023/05/28 03:28:29;;;;;;;4.67;3.00;;;;;;;16.42;100.00;99078.34;5074656;28;20740;-78
2023/05/28 03:30:57;;;;;;;5.43;3.13;;;;;;;16.41;100.00;99079.31;5074801;28;20262;-78
2023/05/28 03:33:23;;;;;;;6.10;3.20;;;;;;;16.36;100.00;99074.56;5074713;28;20206;-78
2023/05/28 03:35:50;;;;;;;5.83;3.17;;;;;;;16.38;100.00;99075.25;5074533;28;20233;-78
2023/05/28 03:38:17;;;;;;;3.73;2.33;;;;;;;16.36;100.00;99069.41;5074777;28;20589;-78
2023/05/28 03:40:44;;;;;;;6.50;3.07;;;;;;;16.27;100.00;99068.53;5073977;28;20272;-79
2023/05/28 03:43:12;;;;;;;8.93;3.40;;;;;;;16.30;100.00;99070.00;5074797;28;20251;-79
2023/05/28 03:45:39;;;;;;;5.43;3.20;;;;;;;16.33;100.00;99067.13;5074167;28;20597;-78
2023/05/28 03:48:07;;;;;;;6.13;3.33;;;;;;;16.38;100.00;99079.59;5074320;28;20211;-78
2023/05/28 03:50:35;;;;;;;14.07;3.10;;;;;;;16.32;100.00;99072.41;5074625;28;20751;-78
2023/05/28 03:53:01;;;;;;;5.43;3.13;;;;;;;16.20;100.00;99077.00;5074329;28;20198;-78
2023/05/28 03:55:28;;;;;;;13.20;3.40;;;;;;;16.17;100.00;99066.97;5074381;28;20610;-78
2023/05/28 03:57:55;;;;;;;4.83;2.80;;;;;;;16.31;100.00;99071.63;5074311;28;20290;-78
2023/05/28 04:00:24;;;;;;;5.13;3.23;;;;;;;16.19;100.00;99073.59;5073947;28;20238;-78
2023/05/28 04:02:50;;;;;;;5.13;3.10;;;;;;;16.28;100.00;99066.75;5074284;28;20560;-79
2023/05/28 04:05:17;;;;;;;6.63;3.67;;;;;;;16.30;100.00;99070.81;5073651;28;20227;-79
2023/05/28 04:07:44;;;;;;;6.10;3.47;;;;;;;16.40;100.00;99068.16;5074066;28;20226;-79
2023/05/28 04:10:11;;;;;;;7.30;4.13;;;;;;;16.50;100.00;99068.09;5073647;28;20226;-79
2023/05/28 04:12:38;;;;;;;9.57;4.77;;;;;;;16.56;100.00;99077.00;5073504;28;20201;-79
2023/05/28 04:15:07;;;;;;;8.60;4.77;;;;;;;16.63;100.00;99078.00;5074275;28;20223;-79
2023/05/28 04:17:35;;;;;;;7.60;4.80;;;;;;;16.70;100.00;99084.22;5074200;28;20738;-78
2023/05/28 04:20:05;;;;;;;10.40;4.33;;;;;;;16.64;100.00;99077.88;5073527;28;20657;-79
2023/05/28 04:22:32;;;;;;;7.20;3.43;;;;;;;16.62;100.00;99079.78;5073999;28;20237;-79
2023/05/28 04:24:58;;;;;;;5.77;3.57;;;;;;;16.70;100.00;99081.63;5073290;28;20239;-79
2023/05/28 04:27:26;;;;;;;5.60;3.77;;;;;;;16.75;100.00;99076.81;5072293;28;20203;-79
2023/05/28 04:29:54;;;;;;;4.90;3.27;;;;;;;16.73;100.00;99084.72;5073543;28;20232;-78
2023/05/28 04:32:22;;;;;;;5.07;3.53;;;;;;;16.74;100.00;99083.75;5073927;28;20211;-79
2023/05/28 04:34:51;;;;;;;4.47;2.57;;;;;;;16.72;100.00;99090.00;5073614;28;20224;-79
2023/05/28 04:37:18;;;;;;;10.17;3.33;;;;;;;16.78;100.00;99088.63;5073570;28;20194;-79
2023/05/28 04:39:45;;;;;;;5.53;3.20;;;;;;;16.72;100.00;99090.00;5073392;28;20225;-78
2023/05/28 04:42:16;;;;;;;4.77;3.23;;;;;;;16.77;100.00;99090.41;5073590;28;20228;-79
2023/05/28 04:44:43;;;;;;;8.37;4.03;;;;;;;16.83;100.00;99099.34;5073730;28;20223;-79
2023/05/28 04:47:11;;;;;;;9.53;3.73;;;;;;;16.86;100.00;99097.25;5073531;28;20740;-78
2023/05/28 04:49:40;;;;;;;4.67;3.00;;;;;;;16.87;100.00;99098.06;5074114;28;20645;-78
2023/05/28 04:52:08;;;;;;;4.07;3.07;;;;;;;16.91;100.00;99089.88;5073382;28;20245;-78
2023/05/28 04:54:35;;;;;;;4.67;2.77;;;;;;;16.95;100.00;99095.53;5073398;28;20199;-78
2023/05/28 04:57:04;;;;;;;9.60;3.20;;;;;;;16.89;100.00;99099.53;5073459;28;20592;-78
2023/05/28 04:59:31;;;;;;;3.70;2.67;;;;;;;16.97;100.00;99109.13;5073637;28;20199;-78
2023/05/28 05:01:58;;;;;;;5.63;2.67;;;;;;;16.93;100.00;99103.44;5072791;28;20325;-79
2023/05/28 05:04:25;;;;;;;3.43;2.60;;;;;;;16.96;100.00;99097.19;5073171;28;20208;-79
2023/05/28 05:06:52;;;;;;;4.33;2.97;;;;;;;16.95;100.00;99105.88;5072764;28;20225;-79
2023/05/28 05:09:20;;;;;;;4.77;3.20;;;;;;;16.99;100.00;99112.38;5072829;28;20703;-79
2023/05/28 05:11:47;;;;;;;7.00;3.20;;;;;;;17.02;100.00;99106.09;5072793;28;20235;-79
2023/05/28 05:14:14;;;;;;;5.70;3.13;;;;;;;16.91;100.00;99113.13;5072690;28;20253;-79
2023/05/28 05:16:41;;;;;;;9.10;3.30;;;;;;;16.78;100.00;99102.34;5073170;28;20228;-79
2023/05/28 05:19:08;;;;;;;4.37;2.60;;;;;;;16.84;100.00;99109.53;5072846;28;20223;-79
2023/05/28 05:21:35;;;;;;;7.10;3.83;;;;;;;16.96;100.00;99105.72;5072541;28;20235;-79
2023/05/28 05:24:02;;;;;;;4.33;3.07;;;;;;;16.96;100.00;99118.66;5072782;28;20233;-79
2023/05/28 05:26:30;;;;;;;5.80;3.37;;;;;;;16.82;100.00;99113.22;5071496;28;20711;-80
2023/05/28 05:28:57;;;;;;;5.37;3.13;;;;;;;16.77;100.00;99107.69;5071476;28;20215;-80
2023/05/28 05:31:24;;;;;;;4.93;3.13;;;;;;;16.91;100.00;99113.13;5071981;28;20216;-79
2023/05/28 05:33:51;;;;;;;5.07;3.23;;;;;;;16.93;100.00;99113.78;5072286;28;20285;-80
2023/05/28 05:36:18;;;;;;;5.83;3.50;;;;;;;17.01;100.00;99109.63;5071308;28;20666;-80
2023/05/28 05:38:45;;;;;;;6.07;3.80;;;;;;;16.90;100.00;99119.25;5071286;28;20281;-81
2023/05/28 05:41:12;;;;;;;7.83;3.30;;;;;;;16.88;100.00;99116.00;5071848;28;20272;-80
2023/05/28 05:43:41;;;;;;;5.70;3.20;;;;;;;16.87;100.00;99113.56;5071661;28;20709;-81
2023/05/28 05:46:07;;;;;;;5.60;3.13;;;;;;;16.83;100.00;99118.22;5071630;28;20219;-81
2023/05/28 05:48:34;;;;;;;5.80;3.43;;;;;;;16.88;100.00;99121.16;5071490;28;20197;-80
2023/05/28 05:51:02;;;;;;;5.87;3.07;;;;;;;16.91;100.00;99120.84;5071983;28;20603;-81
2023/05/28 05:53:30;;;;;;;5.20;3.03;;;;;;;16.96;100.00;99128.97;5071499;28;20191;-80
2023/05/28 05:55:56;;;;;;;9.77;3.60;;;;;;;16.94;100.00;99125.72;5071046;28;20227;-80
2023/05/28 05:58:23;;;;;;;5.67;3.33;;;;;;;16.96;100.00;99133.34;5071938;28;20295;-80
2023/05/28 06:00:51;;;;;;;5.77;3.60;;;;;;;16.83;100.00;99133.72;5071267;28;20233;-80
2023/05/28 06:03:18;;;;;;;4.53;3.33;;;;;;;16.82;100.00;99132.09;5071559;28;20232;-80
2023/05/28 06:05:45;;;;;;;7.43;3.90;;;;;;;16.75;100.00;99131.84;5071789;28;20241;-80
2023/05/28 06:08:12;;;;;;;5.23;3.40;;;;;;;16.76;100.00;99132.69;5071045;28;20642;-80
2023/05/28 06:10:39;;;;;;;5.17;3.13;;;;;;;16.79;100.00;99129.00;5071645;28;20219;-81
2023/05/28 06:13:06;;;;;;;5.47;3.40;;;;;;;16.70;100.00;99128.91;5071477;28;20203;-80
2023/05/28 06:15:33;;;;;;;4.93;3.40;;;;;;;16.81;100.00;99125.28;5071873;28;20242;-80
2023/05/28 06:18:01;;;;;;;8.00;4.10;;;;;;;16.89;100.00;99121.97;5071199;28;20194;-80
2023/05/28 06:20:28;;;;;;;7.17;4.10;;;;;;;16.80;100.00;99118.50;5071402;28;20707;-80
2023/05/28 06:22:54;;;;;;;5.60;3.53;;;;;;;16.79;100.00;99116.91;5071538;28;20985;-81
2023/05/28 06:25:22;;;;;;;6.33;3.83;;;;;;;16.85;100.00;99126.63;5071028;28;20228;-81
2023/05/28 06:27:49;;;;;;;7.53;3.93;;;;;;;16.81;100.00;99125.28;5070897;28;20211;-82
2023/05/28 06:30:16;;;;;;;6.03;3.90;;;;;;;16.92;100.00;99125.06;5070351;28;20298;-82
2023/05/28 06:32:43;;;;;;;6.03;3.57;;;;;;;16.95;100.00;99117.00;5070957;28;20203;-82
2023/05/28 06:35:11;;;;;;;6.63;4.00;;;;;;;17.10;100.00;99121.63;5070947;28;20231;-82
2023/05/28 06:37:38;;;;;;;5.17;3.30;;;;;;;17.16;100.00;99118.44;5070670;28;20635;-81
2023/05/28 06:40:06;;;;;;;6.10;3.83;;;;;;;17.37;100.00;99121.47;5070554;28;20229;-81
2023/05/28 06:42:33;;;;;;;7.00;3.70;;;;;;;17.50;100.00;99115.06;5070500;28;20377;-82
2023/05/28 06:45:00;;;;;;;6.07;3.77;;;;;;;17.41;100.00;99122.78;5070509;28;20629;-82
2023/05/28 06:47:27;;;;;;;6.50;4.00;;;;;;;17.63;100.00;99115.47;5071035;28;20267;-81
2023/05/28 06:49:54;;;;;;;5.60;4.10;;;;;;;17.87;100.00;99113.00;5069824;28;20229;-81
2023/05/28 06:52:23;;;;;;;6.93;4.37;;;;;;;18.04;100.00;99124.19;5070348;28;20281;-81
2023/05/28 06:54:50;;;;;;;9.43;3.90;;;;;;;18.13;100.00;99116.47;5070459;28;20222;-81
2023/05/28 06:57:17;;;;;;;5.17;3.60;;;;;;;18.22;100.00;99121.50;5070427;28;20219;-79
2023/05/28 06:59:44;;;;;;;6.07;3.73;;;;;;;18.52;100.00;99121.84;5070948;28;20227;-81
2023/05/28 07:02:11;;;;;;;8.20;3.87;;;;;;;18.70;100.00;99135.47;5070100;28;20271;-81
2023/05/28 07:04:37;;;;;;;7.57;3.83;;;;;;;18.73;100.00;99137.75;5070503;28;20204;-81
2023/05/28 07:07:05;;;;;;;5.67;3.60;;;;;;;18.84;100.00;99135.81;5070518;28;20252;-81
2023/05/28 07:09:33;;;;;;;5.77;3.73;;;;;;;18.83;100.00;99144.56;5070485;28;20199;-81
2023/05/28 07:12:00;;;;;;;4.87;3.43;;;;;;;18.94;100.00;99141.66;5071056;28;20197;-81
2023/05/28 07:14:27;;;;;;;4.33;3.00;;;;;;;19.04;100.00;99142.25;5069916;28;20214;-81
2023/05/28 07:16:54;;;;;;;4.93;3.27;;;;;;;19.16;100.00;99143.53;5070583;28;20270;-80
2023/05/28 07:19:21;;;;;;;5.83;3.73;;;;;;;19.26;100.00;99139.94;5070468;28;20203;-80
2023/05/28 07:21:48;;;;;;;4.20;3.07;;;;;;;19.22;100.00;99148.06;5070438;28;20239;-80
2023/05/28 07:24:14;;;;;;;6.00;3.17;;;;;;;19.52;100.00;99145.75;5070374;28;20210;-80
2023/05/28 07:26:44;;;;;;;5.67;3.20;;;;;;;19.79;100.00;99146.31;5070325;28;20227;-83
2023/05/28 07:29:13;;;;;;;4.90;3.43;;;;;;;19.98;100.00;99140.69;5070290;28;20207;-81
2023/05/28 07:31:40;;;;;;;4.00;2.90;;;;;;;20.12;100.00;99141.78;5070613;28;20227;-81
2023/05/28 07:34:06;;;;;;;4.43;3.13;;;;;;;20.12;100.00;99142.56;5070949;28;20196;-81
2023/05/28 07:36:33;;;;;;;4.13;2.63;;;;;;;20.29;100.00;99139.91;5070259;28;20221;-81
2023/05/28 07:39:01;;;;;;;4.50;3.30;;;;;;;20.45;100.00;99137.19;5070236;28;20201;-81
2023/05/28 07:41:27;;;;;;;3.87;2.83;;;;;;;20.58;100.00;99137.44;5069711;28;20268;-81
2023/05/28 07:43:56;;;;;;;3.63;2.80;;;;;;;20.68;100.00;99144.19;5070217;28;20343;-81
2023/05/28 07:46:23;;;;;;;3.40;2.50;;;;;;;20.62;100.00;99131.91;5070165;28;20664;-81
2023/05/28 07:48:50;;;;;;;3.60;2.50;;;;;;;20.68;100.00;99136.41;5070489;28;20211;-81
2023/05/28 07:51:18;;;;;;;3.77;2.50;;;;;;;20.79;100.00;99134.19;5070335;28;20708;-81
2023/05/28 07:53:45;;;;;;;4.80;2.70;;;;;;;20.80;100.00;99128.03;5069722;28;20271;-81
2023/05/28 07:56:12;;;;;;;6.13;2.80;;;;;;;20.67;100.00;99124.41;5070072;28;20222;-80
2023/05/28 07:58:42;;;;;;;6.13;2.63;;;;;;;20.76;100.00;99126.75;5070405;28;20706;-81
2023/05/28 08:01:11;;;;;;;4.10;2.50;;;;;;;20.79;100.00;99129.00;5071489;28;20221;-80
2023/05/28 08:03:37;;;;;;;4.37;2.53;;;;;;;20.86;100.00;99123.91;5073798;28;20728;-80
2023/05/28 08:06:06;;;;;;;3.77;2.57;;;;;;;20.88;100.00;99128.94;5073765;28;20666;-80
2023/05/28 08:08:33;;;;;;;4.17;2.90;;;;;;;20.95;100.00;99128.06;5074691;28;20269;-80
2023/05/28 08:10:59;;;;;;;3.87;2.57;;;;;;;20.92;100.00;99136.22;5073974;28;20233;-79
2023/05/28 08:13:26;;;;;;;4.70;2.73;;;;;;;20.97;100.00;99136.50;5074258;28;20250;-80
2023/05/28 08:15:53;;;;;;;4.97;2.60;;;;;;;20.85;100.00;99137.88;5074023;28;20221;-80
2023/05/28 08:18:21;;;;;;;3.83;2.50;;;;;;;20.87;100.00;99141.13;5074589;28;20227;-78
2023/05/28 08:20:48;;;;;;;5.67;2.73;;;;;;;20.92;100.00;99138.81;5074601;28;20277;-80
2023/05/28 08:23:15;;;;;;;3.50;2.43;;;;;;;20.92;100.00;99133.59;5073786;28;20239;-80
2023/05/28 08:25:42;;;;;;;4.00;2.50;;;;;;;20.86;100.00;99134.31;5073568;28;20219;-80
2023/05/28 08:28:09;;;;;;;3.17;2.37;;;;;;;20.83;100.00;99134.66;5073443;28;20217;-80
2023/05/28 08:30:36;;;;;;;4.03;2.70;;;;;;;20.91;100.00;99136.38;5073331;28;20226;-79
2023/05/28 08:33:03;;;;;;;7.27;2.80;;;;;;;20.91;100.00;99131.97;5073831;28;20207;-80
2023/05/28 08:35:32;;;;;;;4.63;3.10;;;;;;;20.97;100.00;99131.28;5073697;28;20256;-79
2023/05/28 08:37:58;;;;;;;5.33;3.23;;;;;;;21.02;100.00;99128.94;5073515;28;20202;-79
2023/05/28 08:40:26;;;;;;;4.10;3.00;;;;;;;21.03;100.00;99127.97;5073657;28;20232;-79
2023/05/28 08:42:53;;;;;;;6.10;3.00;;;;;;;21.03;100.00;99130.59;5072752;28;20237;-80
2023/05/28 08:45:20;;;;;;;4.13;2.90;;;;;;;21.00;100.00;99130.94;5073320;28;20218;-79
2023/05/28 08:47:51;;;;;;;4.17;2.83;;;;;;;21.15;100.00;99122.34;5073288;28;20264;-80
2023/05/28 08:50:18;;;;;;;6.43;2.87;;;;;;;21.04;100.00;99121.00;5072946;28;20214;-80
2023/05/28 08:52:49;;;;;;;6.17;2.70;;;;;;;21.10;100.00;99120.28;5072895;28;20202;-80
2023/05/28 08:55:16;;;;;;;5.67;3.03;;;;;;;21.08;100.00;99127.44;5072677;28;20221;-80
2023/05/28 08:57:45;;;;;;;7.43;2.70;;;;;;;21.14;100.00;99120.72;5072837;28;20241;-80
2023/05/28 09:00:13;;;;;;;5.67;2.77;;;;;;;21.09;100.00;99125.63;5072704;28;20280;-80
2023/05/28 09:02:40;;;;;;;4.17;2.70;;;;;;;21.11;100.00;99131.47;5072807;28;20615;-79
2023/05/28 09:05:08;;;;;;;4.20;3.07;;;;;;;21.09;100.00;99128.25;5073090;28;20228;-80
2023/05/28 09:07:35;;;;;;;4.43;2.80;;;;;;;21.18;100.00;99119.41;5072752;28;20622;-80
2023/05/28 09:10:04;;;;;;;4.00;2.87;;;;;;;21.30;100.00;99125.75;5072756;28;20225;-81
2023/05/28 09:12:31;;;;;;;5.80;3.43;;;;;;;21.43;100.00;99136.34;5071846;28;20324;-81
2023/05/28 09:14:58;;;;;;;4.27;2.80;;;;;;;21.42;100.00;99139.97;5072015;28;20628;-81
2023/05/28 09:17:36;;;;;;;4.37;2.93;;;;;;;21.52;100.00;99134.47;5072283;28;20206;-81
2023/05/28 09:20:11;;;;;;;4.07;2.97;;;;;;;21.44;100.00;99135.41;5071870;28;20217;-81
2023/05/28 09:22:38;;;;;;;6.17;3.37;;;;;;;21.45;100.00;99134.41;5072078;28;20317;-81
2023/05/28 09:25:08;;;;;;;5.73;3.00;;;;;;;21.50;100.00;99133.03;5071774;28;20222;-81
2023/05/28 09:27:35;;;;;;;6.40;3.10;;;;;;;21.56;100.00;99132.34;5071566;28;20260;-81
2023/05/28 09:30:05;;;;;;;5.03;3.23;;;;;;;21.60;100.00;99147.41;5071682;28;20284;-81
2023/05/28 09:32:34;;;;;;;4.57;3.20;;;;;;;21.59;100.00;99139.78;5072220;28;20632;-81
2023/05/28 09:35:01;;;;;;;6.60;3.33;;;;;;;21.65;100.00;99139.06;5071632;28;20746;-79
2023/05/28 09:37:29;;;;;;;6.70;3.40;;;;;;;21.63;100.00;99139.22;5072426;28;20271;-79
2023/05/28 09:40:01;;;;;;;5.15;3.00;;;;;;;21.68;100.00;99133.50;5072598;28;20218;-79
2023/05/28 09:42:33;;;;;;;5.53;2.73;;;;;;;21.75;100.00;99131.75;5072691;28;20226;-79
2023/05/28 09:45:01;;;;;;;5.10;2.90;;;;;;;21.64;100.00;99133.06;5072271;28;20222;-79
2023/05/28 09:47:28;;;;;;;4.23;2.80;;;;;;;21.76;100.00;99122.16;5071820;28;20210;-79
2023/05/28 09:49:55;;;;;;;4.73;3.13;;;;;;;21.79;100.00;99127.84;5072049;28;20231;-79
2023/05/28 09:52:23;;;;;;;4.75;3.50;;;;;;;21.98;100.00;99117.81;5071304;28;20207;-79
2023/05/28 09:54:52;;;;;;;10.98;3.10;;;;;;;22.01;100.00;99127.88;5071501;28;20235;-79
2023/05/28 09:57:26;;;;;;;5.10;3.17;;;;;;;22.02;100.00;99129.47;5071759;28;20210;-80
2023/05/28 09:59:56;;;;;;;7.28;3.63;;;;;;;22.13;100.00;99129.00;5072450;28;20303;-79
2023/05/28 10:02:30;;;;;;;5.65;3.55;;;;;;;22.37;100.00;99117.47;5073708;28;20202;-79
2023/05/28 10:05:00;;;;;;;6.25;3.60;;;;;;;22.73;100.00;99112.16;5074185;28;20240;-80
2023/05/28 10:07:29;;;;;;;5.40;3.60;;;;;;;23.00;100.00;99112.38;5073154;28;20203;-79
2023/05/28 10:10:01;;;;;;;4.60;3.08;;;;;;;23.05;99.79;99116.03;5073084;28;20237;-78
2023/05/28 10:12:30;;;;;;;4.53;2.90;;;;;;;23.25;99.13;99121.38;5073484;28;20222;-79
2023/05/28 10:15:00;;;;;;;5.28;3.65;;;;;;;23.45;100.00;99110.25;5072881;28;20677;-79
2023/05/28 10:17:27;;;;;;;6.85;3.60;;;;;;;23.68;99.36;99108.13;5073125;28;20861;-79
2023/05/28 10:19:54;;;;;;;6.75;3.72;;;;;;;23.58;96.96;99109.47;5073281;28;20226;-79
2023/05/28 10:22:21;;;;;;;7.40;3.53;;;;;;;23.52;96.67;99105.84;5072489;28;20233;-79
2023/05/28 10:24:48;;;;;;;3.78;2.60;;;;;;;23.46;94.58;99104.81;5073014;28;20219;-79
2023/05/28 10:27:16;;;;;;;5.82;2.92;;;;;;;23.66;94.87;99097.06;5074917;28;20198;-79
2023/05/28 10:29:43;;;;;;;5.47;3.33;;;;;;;24.10;97.67;99101.03;5072959;28;20597;-79
2023/05/28 10:32:15;;;;;;;5.10;3.60;;;;;;;24.28;93.13;99089.22;5074393;28;20761;-79
2023/05/28 10:34:42;;;;;;;3.72;2.88;;;;;;;24.34;95.40;99083.19;5073253;28;20227;-79
2023/05/28 10:37:10;;;;;;;4.25;3.42;;;;;;;24.49;96.89;99086.44;5074759;28;20802;-79
2023/05/28 10:39:41;;;;;;;5.15;3.40;;;;;;;24.88;98.53;99079.59;5074235;28;20206;-79
2023/05/28 10:42:09;;;;;;;5.25;3.42;;;;;;;25.02;94.40;99083.78;5073437;28;20198;-79
2023/05/28 10:45:07;;;;;;;5.13;2.97;;;;;;;24.87;86.17;99087.63;5075154;28;20230;-78
2023/05/28 10:47:37;;;;;;;5.70;3.63;;;;;;;24.57;89.49;99072.38;5061926;28;20210;-79
2023/05/28 10:50:12;;;;;;;3.78;2.85;;;;;;;24.57;90.01;99067.94;5073639;28;20221;-79
2023/05/28 10:52:39;;;;;;;6.63;2.72;;;;;;;24.57;94.31;99062.72;5076094;28;20570;-79
2023/05/28 10:55:08;;;;;;;4.53;3.03;;;;;;;24.56;89.41;99058.50;5074140;28;20665;-79
2023/05/28 10:57:44;;;;;;;4.88;3.13;;;;;;;24.66;90.90;99052.03;5074545;28;20658;-79
2023/05/28 11:00:13;;;;;;;4.63;2.75;;;;;;;24.57;88.66;99057.47;5074303;28;20226;-79
2023/05/28 11:02:44;;;;;;;4.38;2.95;;;;;;;24.79;90.33;99041.59;5074976;28;20706;-79
2023/05/28 11:05:11;;;;;;;4.97;3.25;;;;;;;24.81;89.01;99047.38;5077107;28;20295;-79
2023/05/28 11:07:39;;;;;;;3.92;3.00;;;;;;;24.71;87.57;99050.44;5075775;28;20627;-79
2023/05/28 11:10:08;;;;;;;7.50;3.53;;;;;;;24.52;90.15;99046.00;5077299;28;20231;-78
2023/05/28 11:12:37;;;;;;;4.03;2.88;;;;;;;24.28;87.53;99050.81;5073809;28;20195;-78
2023/05/28 11:15:06;;;;;;;3.70;2.88;;;;;;;24.10;88.41;99051.41;5077062;28;20215;-78
2023/05/28 11:17:37;;;;;;;5.43;2.78;;;;;;;23.77;93.53;99048.75;5072765;28;20607;-78
2023/05/28 11:20:07;;;;;;;4.80;2.85;;;;;;;23.55;90.90;99047.22;5073675;28;20217;-78
2023/05/28 11:22:36;;;;;;;4.55;2.63;;;;;;;23.28;89.30;99042.72;5072303;28;20199;-78
2023/05/28 11:25:08;;;;;;;4.53;3.22;;;;;;;23.24;92.59;99036.28;5076249;28;20734;-78
2023/05/28 11:27:36;;;;;;;4.10;2.58;;;;;;;23.26;94.90;99034.25;5074999;28;20237;-78
2023/05/28 11:30:11;;;;;;;7.95;2.80;;;;;;;23.12;93.77;99032.59;5073798;28;20617;-78